Time;durP1;ratioP1;P1;durP2;ratioP2;P2;SDS_P1;SDS_P2;PMS_P1;PMS_P2;Temp;Humidity;BMP_temperature;BMP_pressure;BME280_temperature;BME280_humidity;BME280_pressure;Samples;Min_cycle;Max_cycle;Signal;HPM_P1;HPM_P2
2022/05/10 00:02:10;;;;;;;393.23;141.37;;;;;;;;;;5058510;28;20552;-71
2022/05/10 00:04:38;;;;;;;388.30;134.50;;;;;;;;;;5057565;28;20479;-71
2022/05/10 00:07:06;;;;;;;391.50;137.47;;;;;;;;;;5057401;28;21073;-71
2022/05/10 00:09:34;;;;;;;395.10;144.73;;;;;;;;;;5057533;28;20576;-71
2022/05/10 00:12:01;;;;;;;388.70;136.53;;;;;;;;;;5057962;28;20457;-71
2022/05/10 00:14:30;;;;;;;384.47;131.77;;;;;;;;;;5057637;28;20554;-70
2022/05/10 00:16:58;;;;;;;390.43;146.87;;;;;;;;;;5058314;28;20507;-70
2022/05/10 00:19:30;;;;;;;388.87;134.73;;;;;;;;;;5057381;28;20465;-70
2022/05/10 00:21:58;;;;;;;393.80;146.70;;;;;;;;;;5057296;28;20453;-70
2022/05/10 00:24:26;;;;;;;388.97;141.10;;;;;;;;;;5057578;28;21098;-70
2022/05/10 00:26:55;;;;;;;393.00;138.90;;;;;;;;;;5057800;28;20465;-70
2022/05/10 00:29:23;;;;;;;385.13;139.87;;;;;;;;;;5056613;28;20481;-71
2022/05/10 00:32:00;;;;;;;383.47;138.07;;;;;;;;;;5058557;28;20476;-71
2022/05/10 00:34:31;;;;;;;397.80;152.13;;;;;;;;;;5057721;28;20461;-71
2022/05/10 00:36:59;;;;;;;376.57;124.47;;;;;;;;;;5058690;28;20453;-71
2022/05/10 00:39:37;;;;;;;382.70;137.10;;;;;;;;;;5058149;28;20470;-70
2022/05/10 00:42:12;;;;;;;399.73;140.50;;;;;;;;;;5057997;28;20465;-71
2022/05/10 00:44:47;;;;;;;389.67;136.63;;;;;;;;;;5057408;28;20491;-70
2022/05/10 00:47:17;;;;;;;391.73;138.73;;;;;;;;;;5056621;28;20475;-70
2022/05/10 00:49:50;;;;;;;386.37;133.53;;;;;;;;;;5057757;28;20939;-72
2022/05/10 00:52:20;;;;;;;388.00;128.67;;;;;;;;;;5056897;28;20877;-70
2022/05/10 00:54:53;;;;;;;402.90;136.20;;;;;;;;;;5056472;28;20971;-70
2022/05/10 00:57:25;;;;;;;347.87;145.20;;;;;;;;;;5056682;28;20465;-71
2022/05/10 00:59:56;;;;;;;396.83;138.60;;;;;;;;;;5056632;28;20701;-70
2022/05/10 01:02:30;;;;;;;391.73;130.63;;;;;;;;;;5056690;28;20529;-70
2022/05/10 01:05:02;;;;;;;340.10;146.13;;;;;;;;;;5056423;28;20975;-70
2022/05/10 01:07:33;;;;;;;391.87;140.87;;;;;;;;;;5055789;28;20462;-69
2022/05/10 01:10:03;;;;;;;337.70;140.53;;;;;;;;;;5056156;28;20489;-70
2022/05/10 01:12:34;;;;;;;390.20;134.50;;;;;;;;;;5056471;28;20501;-70
2022/05/10 01:15:03;;;;;;;370.17;134.43;;;;;;;;;;5057209;28;20497;-70
2022/05/10 01:17:31;;;;;;;357.67;142.07;;;;;;;;;;5056595;28;20473;-71
2022/05/10 01:20:01;;;;;;;398.50;141.37;;;;;;;;;;5057631;28;20465;-71
2022/05/10 01:22:35;;;;;;;387.30;132.23;;;;;;;;;;5056962;28;20461;-71
2022/05/10 01:25:08;;;;;;;383.17;123.00;;;;;;;;;;5056776;28;20464;-71
2022/05/10 01:27:43;;;;;;;381.13;130.00;;;;;;;;;;5056800;28;20890;-71
2022/05/10 01:30:13;;;;;;;380.97;130.70;;;;;;;;;;5055359;28;20495;-71
2022/05/10 01:35:41;;;;;;;393.17;135.33;;;;;;;;;;5056396;28;20441;-71
2022/05/10 01:38:09;;;;;;;388.57;129.13;;;;;;;;;;5056151;28;20465;-71
2022/05/10 01:40:38;;;;;;;371.00;134.83;;;;;;;;;;5055796;28;21139;-71
2022/05/10 01:43:08;;;;;;;373.13;124.20;;;;;;;;;;5056251;28;20458;-71
2022/05/10 01:45:39;;;;;;;382.70;122.77;;;;;;;;;;5056158;28;20461;-71
2022/05/10 01:48:09;;;;;;;385.10;131.50;;;;;;;;;;5056465;28;20473;-71
2022/05/10 01:50:40;;;;;;;379.27;140.50;;;;;;;;;;5056313;28;20841;-71
2022/05/10 01:53:09;;;;;;;376.50;123.07;;;;;;;;;;5056567;28;20469;-71
2022/05/10 01:55:38;;;;;;;376.87;120.80;;;;;;;;;;5056179;28;20980;-71
2022/05/10 01:58:11;;;;;;;389.70;128.83;;;;;;;;;;5056863;28;20810;-71
2022/05/10 02:00:41;;;;;;;385.30;130.87;;;;;;;;;;5056098;28;20457;-71
2022/05/10 02:03:12;;;;;;;390.30;129.73;;;;;;;;;;5055171;28;20741;-71
2022/05/10 02:05:45;;;;;;;383.07;124.73;;;;;;;;;;5052723;28;20453;-71
2022/05/10 02:08:16;;;;;;;395.90;136.27;;;;;;;;;;5056119;28;20465;-70
2022/05/10 02:10:46;;;;;;;380.63;122.07;;;;;;;;;;5055124;28;20924;-71
2022/05/10 02:13:15;;;;;;;395.10;136.70;;;;;;;;;;5056153;28;20560;-71
2022/05/10 02:15:47;;;;;;;396.90;132.47;;;;;;;;;;5055880;28;20449;-71
2022/05/10 02:18:18;;;;;;;377.77;124.10;;;;;;;;;;5056285;28;20873;-70
2022/05/10 02:20:49;;;;;;;385.37;130.37;;;;;;;;;;5055959;28;20497;-70
2022/05/10 02:23:20;;;;;;;395.90;123.63;;;;;;;;;;5055636;28;20461;-71
2022/05/10 02:25:51;;;;;;;357.63;130.00;;;;;;;;;;5055836;28;20452;-71
2022/05/10 02:28:24;;;;;;;382.43;125.00;;;;;;;;;;5055321;28;20818;-70
2022/05/10 02:30:55;;;;;;;383.43;127.73;;;;;;;;;;5054967;28;20512;-70
2022/05/10 02:33:23;;;;;;;392.40;119.17;;;;;;;;;;5055630;28;20461;-70
2022/05/10 02:35:53;;;;;;;374.57;118.20;;;;;;;;;;5055583;28;20453;-70
2022/05/10 02:38:23;;;;;;;379.17;124.10;;;;;;;;;;5057004;28;20479;-70
2022/05/10 02:40:52;;;;;;;389.87;130.73;;;;;;;;;;5055388;28;20492;-69
2022/05/10 02:43:22;;;;;;;392.63;129.73;;;;;;;;;;5058244;28;20465;-70
2022/05/10 02:45:50;;;;;;;377.63;118.50;;;;;;;;;;5059060;28;20461;-69
2022/05/10 02:48:22;;;;;;;375.90;119.73;;;;;;;;;;5058478;28;20461;-70
2022/05/10 02:50:50;;;;;;;372.47;114.00;;;;;;;;;;5059141;28;20586;-70
2022/05/10 02:53:21;;;;;;;381.00;125.00;;;;;;;;;;5059573;28;20889;-70
2022/05/10 02:55:51;;;;;;;380.63;116.70;;;;;;;;;;5058964;28;20457;-70
2022/05/10 02:58:26;;;;;;;377.17;120.77;;;;;;;;;;5059974;28;20560;-71
2022/05/10 03:00:56;;;;;;;384.07;128.87;;;;;;;;;;5055128;28;20539;-71
2022/05/10 03:03:27;;;;;;;385.37;122.00;;;;;;;;;;5059323;28;20472;-71
2022/05/10 03:05:55;;;;;;;379.87;121.90;;;;;;;;;;5059749;28;20445;-71
2022/05/10 03:08:26;;;;;;;385.17;126.10;;;;;;;;;;5059889;28;20475;-71
2022/05/10 03:10:54;;;;;;;386.30;125.93;;;;;;;;;;5059210;28;20485;-71
2022/05/10 03:13:21;;;;;;;381.20;118.93;;;;;;;;;;5059690;28;20465;-70
2022/05/10 03:15:52;;;;;;;372.07;108.67;;;;;;;;;;5058749;28;20534;-70
2022/05/10 03:18:19;;;;;;;381.73;120.77;;;;;;;;;;5059694;28;20472;-71
2022/05/10 03:20:49;;;;;;;381.10;127.07;;;;;;;;;;5059474;28;20481;-70
2022/05/10 03:23:22;;;;;;;376.60;121.07;;;;;;;;;;5059268;28;20470;-70
2022/05/10 03:25:53;;;;;;;383.43;127.87;;;;;;;;;;5059547;28;20776;-70
2022/05/10 03:28:21;;;;;;;387.93;125.40;;;;;;;;;;5058778;28;20461;-70
2022/05/10 03:30:49;;;;;;;384.47;124.23;;;;;;;;;;5058797;28;20486;-69
2022/05/10 03:33:16;;;;;;;388.20;126.20;;;;;;;;;;5058532;28;20944;-69
2022/05/10 03:35:44;;;;;;;383.90;126.37;;;;;;;;;;5058586;28;20469;-70
2022/05/10 03:38:16;;;;;;;371.80;112.37;;;;;;;;;;5058907;28;20469;-69
2022/05/10 03:40:50;;;;;;;379.17;123.77;;;;;;;;;;5059299;28;20468;-69
2022/05/10 03:43:18;;;;;;;377.47;114.57;;;;;;;;;;5058335;28;20465;-70
2022/05/10 03:45:45;;;;;;;376.87;113.77;;;;;;;;;;5058787;28;20485;-71
2022/05/10 03:48:13;;;;;;;386.47;128.53;;;;;;;;;;5058940;28;20526;-71
2022/05/10 03:50:44;;;;;;;392.07;124.50;;;;;;;;;;5058181;28;20486;-71
2022/05/10 03:53:12;;;;;;;380.07;117.53;;;;;;;;;;5057545;28;20843;-71
2022/05/10 03:55:41;;;;;;;378.50;116.30;;;;;;;;;;5058202;28;20534;-71
2022/05/10 03:58:13;;;;;;;384.37;122.87;;;;;;;;;;5058229;28;20454;-71
2022/05/10 04:00:49;;;;;;;374.53;110.87;;;;;;;;;;5057772;28;20464;-70
2022/05/10 04:03:17;;;;;;;386.63;123.80;;;;;;;;;;5058555;28;20453;-70
2022/05/10 04:05:45;;;;;;;383.17;121.37;;;;;;;;;;5057862;28;20532;-69
2022/05/10 04:08:13;;;;;;;382.93;120.53;;;;;;;;;;5057867;28;20454;-69
2022/05/10 04:10:42;;;;;;;377.80;117.60;;;;;;;;;;5057509;28;20511;-71
2022/05/10 04:13:10;;;;;;;385.50;124.07;;;;;;;;;;5057818;28;20457;-71
2022/05/10 04:15:38;;;;;;;377.47;121.50;;;;;;;;;;5058009;28;20481;-71
2022/05/10 04:18:06;;;;;;;388.30;128.33;;;;;;;;;;5057751;28;20586;-71
2022/05/10 04:20:37;;;;;;;374.93;118.20;;;;;;;;;;5056793;28;20454;-71
2022/05/10 04:23:05;;;;;;;384.00;125.03;;;;;;;;;;5057663;28;20488;-70
2022/05/10 04:25:33;;;;;;;402.13;135.60;;;;;;;;;;5057841;28;20453;-71
2022/05/10 04:28:05;;;;;;;395.73;138.33;;;;;;;;;;5057234;28;20474;-70
2022/05/10 04:30:33;;;;;;;379.87;118.10;;;;;;;;;;5057376;28;20489;-69
2022/05/10 04:33:01;;;;;;;384.03;121.33;;;;;;;;;;5056840;28;20450;-71
2022/05/10 04:35:29;;;;;;;377.77;123.37;;;;;;;;;;5057523;28;20515;-71
2022/05/10 04:37:57;;;;;;;379.73;123.73;;;;;;;;;;5057754;28;20485;-70
2022/05/10 04:43:11;;;;;;;379.37;123.67;;;;;;;;;;5056082;28;20432;-71
2022/05/10 04:45:40;;;;;;;395.30;141.20;;;;;;;;;;5057533;28;20461;-71
2022/05/10 04:48:08;;;;;;;385.10;127.10;;;;;;;;;;5055687;28;20482;-70
2022/05/10 04:50:39;;;;;;;383.87;127.30;;;;;;;;;;5055676;28;20461;-70
2022/05/10 04:53:07;;;;;;;374.80;120.67;;;;;;;;;;5056053;28;20861;-71
2022/05/10 04:55:35;;;;;;;373.07;121.13;;;;;;;;;;5055388;28;20778;-70
2022/05/10 04:58:03;;;;;;;383.60;124.00;;;;;;;;;;5055950;28;20456;-71
2022/05/10 05:00:32;;;;;;;383.27;130.33;;;;;;;;;;5055804;28;20752;-71
2022/05/10 05:03:00;;;;;;;377.60;118.53;;;;;;;;;;5055726;28;20460;-71
2022/05/10 05:05:28;;;;;;;396.77;139.07;;;;;;;;;;5054977;28;20513;-70
2022/05/10 05:07:56;;;;;;;388.67;139.40;;;;;;;;;;5056548;28;20861;-71
2022/05/10 05:10:24;;;;;;;398.30;156.97;;;;;;;;;;5055083;28;20458;-71
2022/05/10 05:12:51;;;;;;;395.43;148.53;;;;;;;;;;5054997;28;20457;-70
2022/05/10 05:15:22;;;;;;;382.67;128.10;;;;;;;;;;5055652;28;21127;-71
2022/05/10 05:17:53;;;;;;;392.70;144.67;;;;;;;;;;5055429;28;20483;-72
2022/05/10 05:20:22;;;;;;;389.43;144.30;;;;;;;;;;5051864;28;20509;-70
2022/05/10 05:22:50;;;;;;;390.17;143.43;;;;;;;;;;5054946;28;20889;-71
2022/05/10 05:25:18;;;;;;;398.50;141.03;;;;;;;;;;5054856;28;20464;-71
2022/05/10 05:27:45;;;;;;;392.30;136.47;;;;;;;;;;5052690;28;20821;-71
2022/05/10 05:30:14;;;;;;;407.90;147.07;;;;;;;;;;5041895;28;20481;-70
2022/05/10 05:32:42;;;;;;;393.77;147.30;;;;;;;;;;5068130;28;20488;-70
2022/05/10 05:35:13;;;;;;;386.17;146.77;;;;;;;;;;5062762;28;20553;-71
2022/05/10 05:37:44;;;;;;;388.57;144.97;;;;;;;;;;5053987;28;20473;-70
2022/05/10 05:40:14;;;;;;;392.20;139.93;;;;;;;;;;5051830;28;21015;-70
2022/05/10 05:42:45;;;;;;;394.97;150.07;;;;;;;;;;5053851;28;20885;-71
2022/05/10 05:45:13;;;;;;;404.60;164.40;;;;;;;;;;5056519;28;20468;-70
2022/05/10 05:47:41;;;;;;;387.63;142.00;;;;;;;;;;5057743;28;20857;-70
2022/05/10 05:50:12;;;;;;;404.37;170.63;;;;;;;;;;5054769;28;20461;-70
2022/05/10 05:52:40;;;;;;;407.20;181.57;;;;;;;;;;5053651;28;20901;-70
2022/05/10 05:55:10;;;;;;;409.90;172.10;;;;;;;;;;5053093;28;20449;-71
2022/05/10 05:57:40;;;;;;;397.40;172.70;;;;;;;;;;5054264;28;20473;-71
2022/05/10 06:00:09;;;;;;;393.13;155.93;;;;;;;;;;5053237;28;20461;-70
2022/05/10 06:02:38;;;;;;;393.10;158.20;;;;;;;;;;5052761;28;20874;-69
2022/05/10 06:05:07;;;;;;;404.27;197.40;;;;;;;;;;5052353;28;20551;-70
2022/05/10 06:07:36;;;;;;;394.33;185.67;;;;;;;;;;5052039;28;20473;-70
2022/05/10 06:10:04;;;;;;;412.93;158.53;;;;;;;;;;5053742;28;20890;-70
2022/05/10 06:12:32;;;;;;;401.33;158.00;;;;;;;;;;5053462;28;20580;-70
2022/05/10 06:15:02;;;;;;;402.30;160.00;;;;;;;;;;5054212;28;20473;-70
2022/05/10 06:17:30;;;;;;;403.43;169.37;;;;;;;;;;5057415;28;20833;-70
2022/05/10 06:19:58;;;;;;;408.93;185.70;;;;;;;;;;5075325;28;20449;-70
2022/05/10 06:22:26;;;;;;;385.70;184.17;;;;;;;;;;5068517;28;20469;-71
2022/05/10 06:24:57;;;;;;;410.33;202.03;;;;;;;;;;5039554;28;20461;-71
2022/05/10 06:27:25;;;;;;;419.67;213.73;;;;;;;;;;5054938;28;20465;-71
2022/05/10 06:29:53;;;;;;;416.27;188.50;;;;;;;;;;5058000;28;20562;-71
2022/05/10 06:32:22;;;;;;;405.47;181.43;;;;;;;;;;5057599;28;20897;-71
2022/05/10 06:34:52;;;;;;;400.87;195.97;;;;;;;;;;5057804;28;20457;-72
2022/05/10 06:40:09;;;;;;;409.40;187.90;;;;;;;;;;5053364;28;21117;-73
2022/05/10 06:42:38;;;;;;;420.20;209.57;;;;;;;;;;5025337;28;20461;-73
2022/05/10 06:45:09;;;;;;;423.47;251.87;;;;;;;;;;5057899;28;20557;-72
2022/05/10 06:47:42;;;;;;;417.60;211.43;;;;;;;;;;5060632;28;20457;-75
2022/05/10 06:50:12;;;;;;;422.00;220.73;;;;;;;;;;5057973;28;20445;-72
2022/05/10 06:52:58;;;;;;;416.73;244.10;;;;;;;;;;5055823;28;20495;-71
2022/05/10 06:55:55;;;;;;;415.30;218.80;;;;;;;;;;5055305;28;20924;-71
2022/05/10 06:58:27;;;;;;;419.43;226.17;;;;;;;;;;5054620;28;20457;-71
2022/05/10 07:01:00;;;;;;;423.73;251.27;;;;;;;;;;5060532;28;20534;-72
2022/05/10 07:03:31;;;;;;;421.60;239.97;;;;;;;;;;5063477;28;20865;-72
2022/05/10 07:06:03;;;;;;;432.37;301.70;;;;;;;;;;5067074;28;20472;-71
2022/05/10 07:08:31;;;;;;;420.90;246.63;;;;;;;;;;5056955;28;20464;-73
2022/05/10 07:10:59;;;;;;;419.37;245.37;;;;;;;;;;5056139;28;20482;-72
2022/05/10 07:13:33;;;;;;;435.67;296.63;;;;;;;;;;5054914;28;20473;-72
2022/05/10 07:16:09;;;;;;;435.07;293.47;;;;;;;;;;5056017;28;20910;-74
2022/05/10 07:18:55;;;;;;;426.20;346.83;;;;;;;;;;5055476;28;20880;-73
2022/05/10 07:21:33;;;;;;;435.60;308.20;;;;;;;;;;5055212;28;20461;-73
2022/05/10 07:24:08;;;;;;;429.23;281.57;;;;;;;;;;5055276;28;20499;-73
2022/05/10 07:26:40;;;;;;;439.17;312.60;;;;;;;;;;5056922;28;20725;-73
2022/05/10 07:31:56;;;;;;;436.80;292.83;;;;;;;;;;5069400;28;20492;-73
2022/05/10 07:34:24;;;;;;;440.47;325.53;;;;;;;;;;5055673;28;20515;-74
2022/05/10 07:36:57;;;;;;;439.50;318.63;;;;;;;;;;5055925;28;20473;-73
2022/05/10 07:39:26;;;;;;;432.93;316.60;;;;;;;;;;5055980;28;20461;-73
2022/05/10 07:44:58;;;;;;;440.70;322.83;;;;;;;;;;4974975;28;20452;-72
2022/05/10 07:47:26;;;;;;;435.93;325.30;;;;;;;;;;5052572;28;20468;-73
2022/05/10 07:49:54;;;;;;;455.93;371.27;;;;;;;;;;5056237;28;20821;-72
2022/05/10 07:52:22;;;;;;;427.50;357.23;;;;;;;;;;5052805;28;20798;-74
2022/05/10 07:54:52;;;;;;;439.27;340.07;;;;;;;;;;5050927;28;20468;-71
2022/05/10 07:57:20;;;;;;;453.60;403.67;;;;;;;;;;5055757;28;20587;-73
2022/05/10 07:59:49;;;;;;;427.43;303.90;;;;;;;;;;5056071;28;20603;-73
2022/05/10 08:02:22;;;;;;;451.87;392.83;;;;;;;;;;5046555;28;20465;-72
2022/05/10 08:04:51;;;;;;;434.73;382.17;;;;;;;;;;5051016;28;20477;-73
2022/05/10 08:07:21;;;;;;;448.90;380.03;;;;;;;;;;5049222;28;20465;-72
2022/05/10 08:09:52;;;;;;;453.83;350.80;;;;;;;;;;5053881;28;20465;-73
2022/05/10 08:12:23;;;;;;;437.47;365.13;;;;;;;;;;5053946;28;20503;-73
2022/05/10 08:14:51;;;;;;;461.67;411.90;;;;;;;;;;5055228;28;20464;-74
2022/05/10 08:17:20;;;;;;;451.87;378.33;;;;;;;;;;5055876;28;20453;-72
2022/05/10 08:19:50;;;;;;;446.90;373.93;;;;;;;;;;5054847;28;20473;-74
2022/05/10 08:22:18;;;;;;;446.73;388.50;;;;;;;;;;5055684;28;20461;-72
2022/05/10 08:24:49;;;;;;;451.97;370.23;;;;;;;;;;5053676;28;20898;-74
2022/05/10 08:27:17;;;;;;;487.50;436.27;;;;;;;;;;5054662;28;20512;-72
2022/05/10 08:30:04;;;;;;;512.77;463.03;;;;;;;;;;5054796;28;20472;-73
2022/05/10 08:32:39;;;;;;;476.80;425.70;;;;;;;;;;5054770;28;20489;-73
2022/05/10 08:35:11;;;;;;;532.40;480.10;;;;;;;;;;5055972;28;20460;-73
2022/05/10 08:37:43;;;;;;;466.33;415.20;;;;;;;;;;5055302;28;20462;-72
2022/05/10 08:40:32;;;;;;;540.13;490.77;;;;;;;;;;5053273;28;20544;-71
2022/05/10 08:43:02;;;;;;;570.93;518.43;;;;;;;;;;5041149;28;20476;-72
2022/05/10 08:45:41;;;;;;;542.50;489.43;;;;;;;;;;5052751;28;20458;-72
2022/05/10 08:48:28;;;;;;;537.03;485.93;;;;;;;;;;5054316;28;20472;-72
2022/05/10 08:50:57;;;;;;;480.77;429.93;;;;;;;;;;5053106;28;20568;-72
2022/05/10 08:53:31;;;;;;;521.90;470.57;;;;;;;;;;5054933;28;20485;-73
2022/05/10 08:56:03;;;;;;;493.23;442.57;;;;;;;;;;5055347;28;20453;-72
2022/05/10 08:58:52;;;;;;;501.03;450.13;;;;;;;;;;5055213;28;20518;-72
2022/05/10 09:01:23;;;;;;;445.50;391.50;;;;;;;;;;5055613;28;20445;-72
2022/05/10 09:04:08;;;;;;;456.40;406.63;;;;;;;;;;5054547;28;20497;-72
2022/05/10 09:06:43;;;;;;;498.73;448.27;;;;;;;;;;5051118;28;20465;-73
2022/05/10 09:09:27;;;;;;;559.77;507.97;;;;;;;;;;5051932;28;20453;-72
2022/05/10 09:12:00;;;;;;;538.47;486.67;;;;;;;;;;5053125;28;20537;-73
2022/05/10 09:14:30;;;;;;;467.53;417.50;;;;;;;;;;5054449;28;20464;-73
2022/05/10 09:16:59;;;;;;;523.63;471.93;;;;;;;;;;5054334;28;20530;-72
2022/05/10 09:19:32;;;;;;;530.57;478.83;;;;;;;;;;5053707;28;20469;-73
2022/05/10 09:22:04;;;;;;;462.60;412.77;;;;;;;;;;5048145;28;20525;-73
2022/05/10 09:24:44;;;;;;;548.67;496.80;;;;;;;;;;5056515;28;20446;-73
2022/05/10 09:27:14;;;;;;;531.33;479.87;;;;;;;;;;5036397;28;20516;-73
2022/05/10 09:29:46;;;;;;;516.57;464.37;;;;;;;;;;5041689;28;20491;-73
2022/05/10 09:35:09;;;;;;;484.63;434.37;;;;;;;;;;5052706;28;20566;-74
2022/05/10 09:37:41;;;;;;;595.83;548.17;;;;;;;;;;5054985;28;20489;-73
2022/05/10 09:40:27;;;;;;;539.57;492.47;;;;;;;;;;5053096;28;20453;-72
2022/05/10 09:42:57;;;;;;;523.00;475.53;;;;;;;;;;5060471;28;20482;-72
2022/05/10 09:45:31;;;;;;;570.60;517.30;;;;;;;;;;5049514;28;20541;-74
2022/05/10 09:48:02;;;;;;;533.63;481.93;;;;;;;;;;5053542;28;20464;-72
2022/05/10 09:50:33;;;;;;;513.33;462.30;;;;;;;;;;5052624;28;20464;-73
2022/05/10 09:53:27;;;;;;;562.63;511.63;;;;;;;;;;5033753;28;20490;-72
2022/05/10 09:55:58;;;;;;;469.40;419.27;;;;;;;;;;4998424;28;20447;-72
2022/05/10 09:58:28;;;;;;;489.53;439.73;;;;;;;;;;5045320;28;20469;-73
2022/05/10 10:00:59;;;;;;;578.10;526.20;;;;;;;;;;5049715;28;20553;-72
2022/05/10 10:03:37;;;;;;;;;;;;;;;;;;;;;
2022/05/10 10:06:24;;;;;;;532.13;480.80;;;;;;;;;;5053513;28;20468;-72
2022/05/10 10:08:56;;;;;;;569.93;519.17;;;;;;;;;;5052524;28;20568;-72
2022/05/10 10:11:33;;;;;;;510.13;459.03;;;;;;;;;;5054291;28;20556;-73
2022/05/10 10:14:03;;;;;;;535.80;483.90;;;;;;;;;;5034732;28;20504;-74
2022/05/10 10:16:38;;;;;;;567.80;516.57;;;;;;;;;;5052345;28;20549;-71
2022/05/10 10:19:07;;;;;;;554.93;502.33;;;;;;;;;;5052848;28;20497;-73
2022/05/10 10:21:42;;;;;;;583.30;529.80;;;;;;;;;;5052539;28;20468;-73
2022/05/10 10:24:12;;;;;;;543.23;491.10;;;;;;;;;;5053187;28;20652;-73
2022/05/10 10:26:47;;;;;;;652.53;602.67;;;;;;;;;;5053128;28;20454;-71
2022/05/10 10:29:18;;;;;;;587.47;534.50;;;;;;;;;;5046151;28;20496;-71
2022/05/10 10:31:48;;;;;;;543.47;492.40;;;;;;;;;;5041809;28;20529;-72
2022/05/10 10:34:19;;;;;;;555.37;503.37;;;;;;;;;;5051043;28;20493;-72
2022/05/10 10:37:08;;;;;;;515.00;463.90;;;;;;;;;;5052535;28;20854;-72
2022/05/10 10:39:39;;;;;;;506.77;455.97;;;;;;;;;;5052356;28;20531;-73
2022/05/10 10:42:12;;;;;;;486.07;435.83;;;;;;;;;;5033210;28;20896;-73
2022/05/10 10:44:45;;;;;;;508.53;459.50;;;;;;;;;;5057339;28;20468;-72
2022/05/10 10:47:22;;;;;;;570.27;518.87;;;;;;;;;;5050386;28;20476;-74
2022/05/10 10:49:55;;;;;;;563.60;511.73;;;;;;;;;;5050449;28;20465;-73
2022/05/10 10:52:29;;;;;;;520.87;470.67;;;;;;;;;;5063327;28;20472;-74
2022/05/10 10:55:04;;;;;;;567.43;516.83;;;;;;;;;;5051309;28;20457;-74
2022/05/10 10:57:48;;;;;;;540.17;490.93;;;;;;;;;;5051864;28;20469;-74
2022/05/10 11:00:33;;;;;;;568.37;524.63;;;;;;;;;;5049462;28;20473;-73
2022/05/10 11:03:25;;;;;;;544.60;493.83;;;;;;;;;;5061184;28;20451;-74
2022/05/10 11:06:13;;;;;;;551.27;499.93;;;;;;;;;;5056715;28;20455;-74
2022/05/10 11:08:59;;;;;;;652.17;604.70;;;;;;;;;;5055861;28;20465;-73
2022/05/10 11:11:35;;;;;;;568.10;517.47;;;;;;;;;;5001598;28;20468;-74
2022/05/10 11:14:16;;;;;;;576.50;526.10;;;;;;;;;;5057020;28;20485;-74
2022/05/10 11:16:59;;;;;;;586.33;538.67;;;;;;;;;;5056402;28;20465;-73
2022/05/10 11:22:45;;;;;;;500.37;450.53;;;;;;;;;;5039747;28;20478;-73
2022/05/10 11:25:25;;;;;;;570.60;519.50;;;;;;;;;;5036514;28;20748;-73
2022/05/10 11:28:04;;;;;;;526.33;475.93;;;;;;;;;;5037231;28;20460;-73
2022/05/10 11:33:53;;;;;;;568.37;516.97;;;;;;;;;;5028754;28;20636;-73
2022/05/10 11:36:42;;;;;;;582.03;531.77;;;;;;;;;;5055697;28;20477;-72
2022/05/10 11:39:45;;;;;;;582.57;530.37;;;;;;;;;;5056157;28;20461;-72
2022/05/10 11:42:26;;;;;;;582.43;529.23;;;;;;;;;;5056347;28;20461;-72
2022/05/10 11:45:10;;;;;;;589.33;536.97;;;;;;;;;;5045246;28;20506;-72
2022/05/10 11:48:12;;;;;;;544.53;492.53;;;;;;;;;;5034496;28;21116;-72
2022/05/10 11:53:45;;;;;;;584.47;532.87;;;;;;;;;;5151342;27;20363;-74
2022/05/10 11:56:14;;;;;;;570.27;518.00;;;;;;;;;;5108905;27;20750;-73
2022/05/10 11:58:47;;;;;;;580.77;528.33;;;;;;;;;;5113436;27;20443;-74
2022/05/10 12:01:14;;;;;;;549.57;497.67;;;;;;;;;;5111657;27;20446;-74
2022/05/10 12:03:53;;;;;;;617.40;564.00;;;;;;;;;;5130703;27;20444;-73
2022/05/10 12:06:39;;;;;;;605.73;554.33;;;;;;;;;;5117335;27;20975;-74
2022/05/10 12:09:07;;;;;;;627.97;574.77;;;;;;;;;;5151794;27;20457;-73
2022/05/10 12:11:39;;;;;;;590.60;539.43;;;;;;;;;;5152032;27;20542;-73
2022/05/10 12:22:58;;;;;;;625.80;572.30;;;;;;;;;;5133525;27;20487;-72
2022/05/10 12:25:57;;;;;;;603.73;550.47;;;;;;;;;;5119486;27;20961;-73
2022/05/10 12:28:41;;;;;;;596.13;544.03;;;;;;;;;;5116448;27;20461;-74
2022/05/10 12:31:27;;;;;;;596.63;544.77;;;;;;;;;;5114670;27;20607;-72
2022/05/10 12:33:58;;;;;;;576.50;525.83;;;;;;;;;;5116491;27;20900;-73
2022/05/10 12:36:31;;;;;;;616.90;564.53;;;;;;;;;;5116151;27;20463;-74
2022/05/10 12:39:17;;;;;;;538.83;487.93;;;;;;;;;;5132622;27;20439;-75
2022/05/10 12:41:51;;;;;;;553.53;501.87;;;;;;;;;;5131351;27;20521;-75
2022/05/10 12:44:46;;;;;;;555.50;504.03;;;;;;;;;;5124368;27;20462;-74
2022/05/10 12:47:33;;;;;;;548.93;497.60;;;;;;;;;;5085858;28;20462;-73
2022/05/10 12:50:09;;;;;;;576.40;524.17;;;;;;;;;;5102314;27;20898;-74
2022/05/10 12:52:43;;;;;;;609.80;558.10;;;;;;;;;;5110931;27;20902;-73
2022/05/10 12:55:22;;;;;;;620.60;568.10;;;;;;;;;;5122115;27;20473;-75
2022/05/10 12:58:03;;;;;;;636.00;582.70;;;;;;;;;;5132349;27;20997;-75
2022/05/10 13:00:51;;;;;;;637.60;584.23;;;;;;;;;;5115789;27;20473;-76
2022/05/10 13:03:22;;;;;;;592.60;539.43;;;;;;;;;;5121688;27;20553;-75
2022/05/10 13:06:07;;;;;;;668.07;613.93;;;;;;;;;;5096683;27;20542;-75
2022/05/10 13:08:40;;;;;;;601.37;548.33;;;;;;;;;;5097533;27;20463;-75
2022/05/10 13:11:08;;;;;;;590.17;537.53;;;;;;;;;;5106670;27;20527;-75
2022/05/10 13:13:40;;;;;;;641.67;588.40;;;;;;;;;;5113206;27;20444;-75
2022/05/10 13:16:14;;;;;;;700.57;647.20;;;;;;;;;;5108780;27;20469;-74
2022/05/10 13:18:42;;;;;;;624.40;571.10;;;;;;;;;;5099057;27;20459;-74
2022/05/10 13:21:11;;;;;;;632.23;579.73;;;;;;;;;;5110310;27;20451;-74
2022/05/10 13:23:39;;;;;;;634.63;581.23;;;;;;;;;;5095958;27;20463;-74
2022/05/10 13:26:11;;;;;;;637.97;584.67;;;;;;;;;;5103664;27;20793;-74
2022/05/10 13:28:53;;;;;;;618.70;566.00;;;;;;;;;;5101185;27;20454;-75
2022/05/10 13:34:14;;;;;;;657.87;607.67;;;;;;;;;;5104889;27;20954;-75
2022/05/10 13:36:53;;;;;;;656.17;602.20;;;;;;;;;;5100447;27;21071;-76
2022/05/10 13:39:26;;;;;;;569.93;518.93;;;;;;;;;;5111927;27;20593;-75
2022/05/10 13:42:10;;;;;;;;;;;;;;;;;;;;;
2022/05/10 13:44:40;;;;;;;547.37;496.50;;;;;;;;;;5113783;27;20458;-74
2022/05/10 13:47:22;;;;;;;601.10;548.73;;;;;;;;;;5102464;27;20572;-75
2022/05/10 13:50:04;;;;;;;572.43;520.23;;;;;;;;;;5109953;27;20532;-74
2022/05/10 13:52:37;;;;;;;576.27;524.00;;;;;;;;;;5114177;27;20546;-73
2022/05/10 13:55:36;;;;;;;561.53;509.97;;;;;;;;;;5116088;27;20465;-74
2022/05/10 13:58:08;;;;;;;555.60;504.33;;;;;;;;;;5098073;27;20448;-74
2022/05/10 14:00:43;;;;;;;547.17;495.60;;;;;;;;;;5097375;27;20460;-73
2022/05/10 14:03:20;;;;;;;594.30;541.90;;;;;;;;;;5103902;27;20466;-73
2022/05/10 14:06:02;;;;;;;612.67;559.97;;;;;;;;;;5114395;27;20451;-73
2022/05/10 14:08:38;;;;;;;591.30;538.70;;;;;;;;;;5112933;27;20510;-72
2022/05/10 14:11:24;;;;;;;602.43;548.93;;;;;;;;;;5102110;27;20443;-73
2022/05/10 14:13:59;;;;;;;646.07;591.73;;;;;;;;;;5112187;27;20819;-74
2022/05/10 14:16:39;;;;;;;614.47;561.60;;;;;;;;;;5111099;27;20473;-74
2022/05/10 14:19:21;;;;;;;601.27;548.77;;;;;;;;;;5116954;27;20465;-74
2022/05/10 14:21:59;;;;;;;560.93;509.00;;;;;;;;;;5109017;27;20474;-74
2022/05/10 14:24:59;;;;;;;570.07;517.90;;;;;;;;;;5105729;27;20457;-73
2022/05/10 14:27:44;;;;;;;;;;;;;;;;;;;;;
2022/05/10 14:30:32;;;;;;;525.30;473.93;;;;;;;;;;5101856;27;20452;-74
2022/05/10 14:33:18;;;;;;;584.47;531.97;;;;;;;;;;5107118;27;20497;-75
2022/05/10 14:36:08;;;;;;;566.07;514.17;;;;;;;;;;5106307;27;20469;-74
2022/05/10 14:38:41;;;;;;;507.83;457.57;;;;;;;;;;5107582;27;20870;-74
2022/05/10 14:41:10;;;;;;;585.20;533.30;;;;;;;;;;5111977;27;20498;-73
2022/05/10 14:43:40;;;;;;;549.60;498.37;;;;;;;;;;5108387;27;20462;-73
2022/05/10 14:46:22;;;;;;;527.93;477.23;;;;;;;;;;5104451;27;21049;-73
2022/05/10 14:48:55;;;;;;;552.27;500.93;;;;;;;;;;5091377;27;20455;-74
2022/05/10 14:51:37;;;;;;;615.70;562.00;;;;;;;;;;5098635;27;20517;-73
2022/05/10 14:54:05;;;;;;;603.00;549.50;;;;;;;;;;5092425;27;20738;-72
2022/05/10 14:56:36;;;;;;;610.40;557.67;;;;;;;;;;5094923;27;20744;-73
2022/05/10 14:59:14;;;;;;;602.17;549.20;;;;;;;;;;5098609;27;20515;-74
2022/05/10 15:01:41;;;;;;;545.73;494.10;;;;;;;;;;5115241;27;20732;-72
2022/05/10 15:04:09;;;;;;;605.67;553.17;;;;;;;;;;5109122;27;20455;-73
2022/05/10 15:06:38;;;;;;;608.50;555.03;;;;;;;;;;5095125;27;20459;-73
2022/05/10 15:09:05;;;;;;;654.27;602.33;;;;;;;;;;5095755;27;20459;-73